Time;durP1;ratioP1;P1;durP2;ratioP2;P2;SDS_P1;SDS_P2;PMS_P1;PMS_P2;Temp;Humidity;BMP_temperature;BMP_pressure;BME280_temperature;BME280_humidity;BME280_pressure;Samples;Min_cycle;Max_cycle;Signal;HPM_P1;HPM_P2
2023/12/02 00:01:38;;;;;;;13.82;7.45;;;3.40;99.90;;;2.54;100.00;100593.84;4153580;28;20540;-80
2023/12/02 00:03:39;;;;;;;8.70;5.35;;;3.40;99.90;;;2.53;100.00;100594.78;4153672;28;20550;-79
2023/12/02 00:05:40;;;;;;;9.98;5.85;;;3.40;99.90;;;2.54;100.00;100591.25;4153643;28;20495;-79
2023/12/02 00:07:41;;;;;;;10.55;6.35;;;3.50;99.90;;;2.59;100.00;100596.94;4152422;28;20026;-79
2023/12/02 00:09:41;;;;;;;10.45;5.95;;;3.50;99.90;;;2.57;100.00;100593.63;4152146;28;20026;-79
2023/12/02 00:11:42;;;;;;;9.27;5.47;;;3.50;99.90;;;2.58;100.00;100595.25;4153459;28;20037;-79
2023/12/02 00:13:43;;;;;;;7.45;4.97;;;3.50;99.90;;;2.56;100.00;100597.16;4153229;28;20026;-79
2023/12/02 00:15:44;;;;;;;10.23;5.75;;;3.50;99.90;;;2.53;100.00;100593.00;4157174;28;20053;-79
2023/12/02 00:17:45;;;;;;;7.40;5.00;;;3.50;99.90;;;2.60;100.00;100601.19;4152218;28;20018;-79
2023/12/02 00:19:46;;;;;;;8.98;4.70;;;3.50;99.90;;;2.61;100.00;100595.06;4153494;28;20026;-79
2023/12/02 00:21:46;;;;;;;8.00;5.47;;;3.50;99.90;;;2.64;100.00;100590.47;4168437;28;20057;-79
2023/12/02 00:23:47;;;;;;;10.15;6.00;;;3.60;99.90;;;2.71;100.00;100594.31;4152125;28;20025;-79
2023/12/02 00:25:48;;;;;;;8.70;4.78;;;3.60;99.90;;;2.72;100.00;100595.09;4151993;28;20022;-79
2023/12/02 00:27:49;;;;;;;7.60;5.07;;;3.60;99.90;;;2.77;100.00;100596.47;4152148;28;20034;-79
2023/12/02 00:29:50;;;;;;;6.78;4.30;;;3.70;99.90;;;2.82;100.00;100598.72;4152935;28;20029;-79
2023/12/02 00:31:51;;;;;;;9.27;4.38;;;3.70;99.90;;;2.82;100.00;100595.28;4184671;28;20025;-79
2023/12/02 00:33:52;;;;;;;7.00;5.07;;;3.70;99.90;;;2.85;100.00;100606.31;4151812;28;20029;-79
2023/12/02 00:35:52;;;;;;;10.82;5.28;;;3.80;99.90;;;2.84;100.00;100596.03;4153202;28;20029;-79
2023/12/02 00:37:53;;;;;;;8.32;5.53;;;3.80;99.90;;;2.86;100.00;100602.78;4135509;28;20403;-79
2023/12/02 00:39:54;;;;;;;5.68;4.75;;;3.80;99.90;;;2.89;100.00;100597.34;4184821;28;20389;-79
2023/12/02 00:41:55;;;;;;;12.32;8.70;;;3.70;99.90;;;2.90;100.00;100599.00;4151714;28;20033;-79
2023/12/02 00:43:56;;;;;;;18.10;12.60;;;3.80;99.90;;;2.91;100.00;100594.63;4184448;28;20028;-79
2023/12/02 00:45:57;;;;;;;10.07;6.70;;;3.80;99.90;;;2.93;100.00;100606.59;4153055;28;20478;-79
2023/12/02 00:47:58;;;;;;;13.68;8.68;;;3.80;99.90;;;2.91;100.00;100608.50;4153080;28;20041;-79
2023/12/02 00:49:58;;;;;;;11.70;8.13;;;3.80;99.90;;;2.90;100.00;100604.22;4151675;28;20072;-79
2023/12/02 00:51:59;;;;;;;11.93;8.18;;;3.80;99.90;;;2.89;100.00;100599.13;4153329;28;20030;-79
2023/12/02 00:54:00;;;;;;;8.57;5.95;;;3.80;99.90;;;2.87;100.00;100601.81;4152919;28;20030;-79
2023/12/02 00:56:01;;;;;;;7.35;5.03;;;3.80;99.90;;;2.90;100.00;100608.63;4154528;28;20449;-79
2023/12/02 00:58:02;;;;;;;8.65;5.60;;;3.80;99.90;;;2.88;100.00;100611.31;4155378;28;20401;-79
2023/12/02 01:00:04;;;;;;;8.48;4.65;;;3.80;99.90;;;2.86;100.00;100602.78;4151448;28;20049;-79
2023/12/02 01:02:06;;;;;;;8.48;5.30;;;3.80;99.90;;;2.90;100.00;100606.81;4167853;28;20612;-79
2023/12/02 01:04:07;;;;;;;7.15;4.45;;;3.80;99.90;;;2.87;100.00;100601.81;4151487;28;20022;-79
2023/12/02 01:06:08;;;;;;;6.70;5.03;;;3.80;99.90;;;2.93;100.00;100593.56;4152526;28;20481;-79
2023/12/02 01:08:09;;;;;;;7.75;5.13;;;3.90;99.90;;;2.95;100.00;100598.69;4135535;28;20129;-80
2023/12/02 01:10:13;;;;;;;7.35;4.72;;;3.80;99.90;;;2.94;100.00;100605.66;4156822;28;20404;-79
2023/12/02 01:12:14;;;;;;;7.93;5.20;;;3.80;99.90;;;2.94;100.00;100607.44;4158600;28;20034;-79
2023/12/02 01:14:14;;;;;;;9.25;5.47;;;3.80;99.90;;;2.92;100.00;100609.31;4151101;28;20045;-79
2023/12/02 01:16:15;;;;;;;9.52;5.55;;;3.80;99.90;;;2.89;100.00;100610.38;4151237;28;20054;-79
2023/12/02 01:18:16;;;;;;;8.05;4.70;;;3.80;99.90;;;2.89;100.00;100607.78;4184131;28;20025;-79
2023/12/02 01:20:17;;;;;;;8.15;4.97;;;3.80;99.90;;;2.89;100.00;100615.59;4151340;28;20030;-79
2023/12/02 01:22:18;;;;;;;7.30;4.90;;;3.80;99.90;;;2.85;100.00;100619.34;4152429;28;20075;-80
2023/12/02 01:24:18;;;;;;;9.65;5.72;;;3.80;99.90;;;2.89;100.00;100627.78;4184007;28;20075;-80
2023/12/02 01:26:19;;;;;;;10.63;5.32;;;3.80;99.90;;;2.87;100.00;100620.06;4152676;28;20076;-80
2023/12/02 01:28:20;;;;;;;6.95;4.65;;;3.80;99.90;;;2.86;100.00;100614.97;4152546;28;20088;-79
2023/12/02 01:30:21;;;;;;;8.98;5.40;;;3.80;99.90;;;2.84;100.00;100619.47;4152179;28;20036;-79
2023/12/02 01:32:22;;;;;;;8.35;5.03;;;3.80;99.90;;;2.89;100.00;100626.00;4151187;28;20041;-79
2023/12/02 01:34:23;;;;;;;8.90;4.57;;;3.80;99.90;;;2.87;100.00;100638.28;4152415;28;20036;-79
2023/12/02 01:36:24;;;;;;;7.53;4.35;;;3.80;99.90;;;2.86;100.00;100636.66;4152366;28;20040;-79
2023/12/02 01:38:25;;;;;;;8.98;5.13;;;3.80;99.90;;;2.85;100.00;100640.19;4134970;28;20031;-79
2023/12/02 01:40:26;;;;;;;7.28;4.82;;;3.80;99.90;;;2.83;100.00;100641.25;4143862;28;20026;-79
2023/12/02 01:42:27;;;;;;;8.65;4.90;;;3.80;99.90;;;2.86;100.00;100652.28;4139980;28;20073;-79
2023/12/02 01:44:28;;;;;;;10.60;4.90;;;3.80;99.90;;;2.85;100.00;100652.38;4152120;28;20037;-79
2023/12/02 01:46:29;;;;;;;7.60;4.63;;;3.80;99.90;;;2.82;100.00;100644.78;4151016;28;20113;-79
2023/12/02 01:48:35;;;;;;;11.07;5.00;;;3.80;99.90;;;2.82;100.00;100648.22;4183649;28;20067;-79
2023/12/02 01:50:36;;;;;;;9.98;5.20;;;3.80;99.90;;;2.83;100.00;100652.50;4167330;28;20488;-79
2023/12/02 01:52:36;;;;;;;6.40;4.53;;;3.80;99.90;;;2.84;100.00;100661.94;4152610;28;20026;-79
2023/12/02 01:54:38;;;;;;;6.25;4.10;;;3.80;99.90;;;2.82;100.00;100657.81;4150793;28;20040;-79
2023/12/02 01:56:40;;;;;;;5.85;4.00;;;3.80;99.90;;;2.85;100.00;100663.63;4150883;28;20026;-79
2023/12/02 01:58:41;;;;;;;6.38;4.40;;;3.70;99.90;;;2.85;100.00;100671.44;4151998;28;20505;-79
2023/12/02 02:00:42;;;;;;;6.53;4.43;;;3.80;99.90;;;2.85;100.00;100670.59;4152200;28;20036;-79
2023/12/02 02:02:43;;;;;;;9.20;4.57;;;3.80;99.90;;;2.82;100.00;100679.47;4152099;28;20496;-79
2023/12/02 02:04:44;;;;;;;7.25;4.93;;;3.80;99.90;;;2.81;100.00;100685.63;4152015;28;20026;-79
2023/12/02 02:06:45;;;;;;;6.80;4.65;;;3.70;99.90;;;2.75;100.00;100675.63;4151001;28;20022;-78
2023/12/02 02:08:46;;;;;;;10.00;4.88;;;3.70;99.90;;;2.77;100.00;100689.41;4150899;28;20026;-78
2023/12/02 02:10:53;;;;;;;6.78;4.22;;;3.70;99.90;;;2.73;100.00;100680.13;4151966;28;20033;-78
2023/12/02 02:12:54;;;;;;;6.93;5.00;;;3.70;99.90;;;2.71;100.00;100688.06;4150796;28;20069;-78
2023/12/02 02:14:55;;;;;;;9.15;4.63;;;3.70;99.90;;;2.68;100.00;100696.09;4166721;28;20545;-78
2023/12/02 02:16:56;;;;;;;6.65;4.45;;;3.60;99.90;;;2.62;100.00;100690.47;4151194;28;20025;-79
2023/12/02 02:18:57;;;;;;;9.88;6.10;;;3.60;99.90;;;2.57;100.00;100700.38;4191202;28;20020;-78
2023/12/02 02:20:58;;;;;;;8.20;4.75;;;3.50;99.90;;;2.50;100.00;100699.13;4153121;28;20036;-79
2023/12/02 02:22:58;;;;;;;8.48;5.03;;;3.40;99.90;;;2.38;100.00;100686.94;4150878;28;20025;-79
2023/12/02 02:24:59;;;;;;;8.60;4.45;;;3.40;99.90;;;2.36;100.00;100699.25;4150851;28;20097;-79
2023/12/02 02:27:00;;;;;;;9.38;6.00;;;3.30;99.90;;;2.32;100.00;100703.81;4167184;28;20022;-79
2023/12/02 02:29:01;;;;;;;8.77;4.55;;;3.20;99.90;;;2.26;100.00;100708.59;4150407;28;20042;-79
2023/12/02 02:31:02;;;;;;;7.18;4.60;;;3.20;99.90;;;2.20;100.00;100704.66;4152036;28;20497;-78
2023/12/02 02:33:03;;;;;;;6.97;4.68;;;3.10;99.90;;;2.20;100.00;100715.06;4166826;28;20029;-79
2023/12/02 02:35:04;;;;;;;9.07;5.03;;;3.10;99.90;;;2.21;100.00;100708.94;4152015;28;20049;-79
2023/12/02 02:37:05;;;;;;;8.63;4.85;;;3.10;99.90;;;2.27;100.00;100702.47;4166820;28;20457;-79
2023/12/02 02:39:07;;;;;;;7.28;4.20;;;3.20;99.90;;;2.32;100.00;100710.78;4150742;28;20496;-79
2023/12/02 02:41:09;;;;;;;6.35;4.93;;;3.20;99.90;;;2.35;100.00;100703.63;4150776;28;20065;-79
2023/12/02 02:43:11;;;;;;;9.82;5.03;;;3.30;99.90;;;2.42;100.00;100714.44;4150965;28;20073;-79
2023/12/02 02:45:11;;;;;;;6.65;4.32;;;3.30;99.90;;;2.47;100.00;100722.75;4151498;28;20022;-79
2023/12/02 02:47:12;;;;;;;7.72;5.22;;;3.40;99.90;;;2.39;100.00;100717.25;4151966;28;20581;-79
2023/12/02 02:49:13;;;;;;;7.55;4.20;;;3.30;99.90;;;2.38;100.00;100726.00;4150766;28;20037;-78
2023/12/02 02:51:14;;;;;;;9.82;4.72;;;3.30;99.90;;;2.34;100.00;100727.13;4151864;28;20033;-79
2023/12/02 02:53:15;;;;;;;8.02;5.07;;;3.30;99.90;;;2.32;100.00;100726.41;4153199;28;20038;-79
2023/12/02 02:55:16;;;;;;;8.32;4.70;;;3.30;99.90;;;2.21;100.00;100722.75;4154764;28;20022;-79
2023/12/02 02:57:20;;;;;;;10.60;4.88;;;3.20;99.90;;;2.13;100.00;100730.25;4153583;28;20034;-79
2023/12/02 02:59:21;;;;;;;;;;;3.10;99.90;;;2.05;100.00;100737.75;4160859;28;20025;-79
2023/12/02 03:01:22;;;;;;;7.72;4.35;;;3.10;99.90;;;2.04;100.00;100741.25;4156799;28;20359;-79
2023/12/02 03:03:23;;;;;;;7.47;4.05;;;3.00;99.90;;;2.03;100.00;100738.78;4153468;28;20053;-79
2023/12/02 03:05:24;;;;;;;7.80;4.80;;;3.00;99.90;;;1.94;100.00;100719.38;4154580;28;20026;-79
2023/12/02 03:07:25;;;;;;;6.03;3.95;;;2.90;99.90;;;1.91;100.00;100737.78;4169625;28;20084;-79
2023/12/02 03:09:25;;;;;;;7.85;3.92;;;2.90;99.90;;;1.83;100.00;100732.28;4153141;28;20037;-79
2023/12/02 03:11:26;;;;;;;8.32;4.55;;;2.80;99.90;;;1.76;100.00;100743.19;4169755;28;20042;-79
2023/12/02 03:13:27;;;;;;;8.32;4.53;;;2.70;99.90;;;1.60;100.00;100731.19;4153048;28;20026;-79
2023/12/02 03:15:28;;;;;;;6.53;4.15;;;2.60;99.90;;;1.51;100.00;100744.78;4154509;28;20405;-78
2023/12/02 03:17:28;;;;;;;7.97;4.50;;;2.50;99.90;;;1.48;100.00;100751.94;4153159;28;20030;-79
2023/12/02 03:19:29;;;;;;;7.55;3.88;;;2.40;99.90;;;1.38;100.00;100750.84;4169365;28;20045;-79
2023/12/02 03:21:30;;;;;;;7.80;4.93;;;2.30;99.90;;;1.32;100.00;100759.84;4153247;28;20505;-79
2023/12/02 03:23:31;;;;;;;8.77;4.65;;;2.30;99.90;;;1.31;100.00;100750.41;4153192;28;20033;-79
2023/12/02 03:25:32;;;;;;;6.70;4.50;;;2.20;99.90;;;1.32;100.00;100757.25;4169295;28;20029;-79
2023/12/02 03:27:33;;;;;;;8.35;4.28;;;2.20;99.90;;;1.28;100.00;100757.56;4154057;28;20036;-79
2023/12/02 03:29:33;;;;;;;7.63;4.30;;;2.20;99.90;;;1.21;100.00;100759.72;4154046;28;20029;-79
2023/12/02 03:31:34;;;;;;;12.88;5.95;;;2.20;99.90;;;1.13;100.00;100755.94;4160849;28;20040;-79
2023/12/02 03:33:35;;;;;;;8.95;4.85;;;2.10;99.90;;;1.11;100.00;100766.41;4140012;28;20032;-79
2023/12/02 03:35:36;;;;;;;9.25;5.38;;;2.10;99.90;;;1.06;100.00;100769.28;4152698;28;20033;-79
2023/12/02 03:37:37;;;;;;;9.77;5.07;;;2.00;99.90;;;1.02;100.00;100775.59;4152899;28;20519;-79
2023/12/02 03:39:38;;;;;;;7.68;5.22;;;1.90;99.90;;;0.95;100.00;100773.47;4152748;28;20521;-79
2023/12/02 03:41:42;;;;;;;11.90;5.43;;;1.90;99.90;;;0.91;100.00;100772.84;4153882;28;20028;-79
2023/12/02 03:43:43;;;;;;;7.38;4.50;;;1.80;99.90;;;0.85;100.00;100777.56;4152380;28;20029;-79
2023/12/02 03:45:44;;;;;;;8.70;4.90;;;1.80;99.90;;;0.83;100.00;100775.06;4136444;28;20034;-79
2023/12/02 03:47:45;;;;;;;11.18;5.88;;;1.80;99.90;;;0.91;100.00;100792.75;4152722;28;20049;-79
2023/12/02 03:49:46;;;;;;;10.15;5.35;;;1.80;99.90;;;0.92;100.00;100789.25;4153781;28;20030;-79
2023/12/02 03:51:47;;;;;;;8.88;5.88;;;1.80;99.90;;;0.88;100.00;100778.22;4154119;28;20049;-79
2023/12/02 03:53:47;;;;;;;9.30;5.85;;;1.80;99.90;;;0.82;100.00;100788.97;4153855;28;20033;-79
2023/12/02 03:55:48;;;;;;;7.88;5.38;;;1.70;99.90;;;0.72;100.00;100785.25;4152596;28;20037;-79
2023/12/02 03:57:49;;;;;;;10.45;5.93;;;1.70;99.90;;;0.67;100.00;100792.50;4153586;28;20030;-79
2023/12/02 03:59:50;;;;;;;9.23;5.22;;;1.60;99.90;;;0.62;100.00;100788.50;4185083;28;20028;-79
2023/12/02 04:01:51;;;;;;;7.60;4.82;;;1.60;99.90;;;0.61;100.00;100794.63;4154188;28;20030;-79
2023/12/02 04:03:52;;;;;;;8.50;5.65;;;1.50;99.90;;;0.54;100.00;100794.13;4162085;28;20025;-79
2023/12/02 04:05:53;;;;;;;8.25;5.68;;;1.50;99.90;;;0.60;100.00;100790.38;4162411;28;20021;-79
2023/12/02 04:07:54;;;;;;;9.15;5.20;;;1.40;99.90;;;0.56;100.00;100797.50;4155264;28;20030;-79
2023/12/02 04:09:55;;;;;;;10.20;5.95;;;1.40;99.90;;;0.47;100.00;100787.66;4153474;28;20045;-79
2023/12/02 04:11:55;;;;;;;9.60;5.20;;;1.40;99.90;;;0.46;100.00;100799.78;4152279;28;20033;-79
2023/12/02 04:13:56;;;;;;;7.60;5.18;;;1.40;99.90;;;0.42;100.00;100803.47;4159756;28;20026;-79
2023/12/02 04:15:57;;;;;;;9.32;5.00;;;1.40;99.90;;;0.36;100.00;100806.44;4155476;28;20050;-79
2023/12/02 04:17:59;;;;;;;7.35;4.93;;;1.30;99.90;;;0.31;100.00;100805.03;4152243;28;20018;-79
2023/12/02 04:20:00;;;;;;;8.00;5.70;;;1.30;99.90;;;0.23;100.00;100799.47;4153464;28;20112;-79
2023/12/02 04:22:01;;;;;;;10.80;6.28;;;1.20;99.90;;;0.22;100.00;100813.34;4152372;28;20396;-79
2023/12/02 04:24:03;;;;;;;7.15;5.25;;;1.10;99.90;;;0.19;100.00;100819.56;4192157;28;20028;-79
2023/12/02 04:26:06;;;;;;;7.93;5.40;;;1.10;99.90;;;0.15;100.00;100817.25;4153528;28;20038;-79
2023/12/02 04:28:10;;;;;;;9.07;5.70;;;1.10;99.90;;;0.14;100.00;100819.00;4152114;28;20026;-79
2023/12/02 04:30:12;;;;;;;10.63;6.78;;;1.00;99.90;;;0.06;100.00;100821.16;4153054;28;20273;-79
2023/12/02 04:32:12;;;;;;;8.50;5.47;;;1.00;99.90;;;0.09;100.00;100835.75;4151803;28;20041;-78
2023/12/02 04:34:14;;;;;;;9.93;5.57;;;1.00;99.90;;;0.09;100.00;100840.94;4156702;28;20088;-79
2023/12/02 04:36:15;;;;;;;9.40;6.38;;;1.00;99.90;;;0.08;100.00;100837.50;4153179;28;20060;-79
2023/12/02 04:38:16;;;;;;;9.27;6.25;;;1.00;99.90;;;0.10;100.00;100845.19;4151874;28;20433;-79
2023/12/02 04:40:17;;;;;;;11.55;5.78;;;1.00;99.90;;;0.13;100.00;100837.22;4153118;28;20474;-79
2023/12/02 04:42:17;;;;;;;8.27;6.35;;;1.00;99.90;;;0.12;100.00;100841.56;4153148;28;20026;-79
2023/12/02 04:44:20;;;;;;;16.35;7.47;;;1.00;99.90;;;0.10;100.00;100846.03;4142875;28;20034;-79
2023/12/02 04:46:20;;;;;;;10.85;6.25;;;1.00;99.90;;;0.06;100.00;100841.09;4157082;28;20022;-79
2023/12/02 04:48:21;;;;;;;11.02;7.75;;;1.00;99.90;;;0.06;100.00;100849.69;4135346;28;20026;-79
2023/12/02 04:50:23;;;;;;;9.55;6.75;;;1.00;99.90;;;0.08;100.00;100847.03;4151994;28;20022;-79
2023/12/02 04:52:24;;;;;;;12.77;7.10;;;1.00;99.90;;;0.09;100.00;100856.50;4135830;28;20465;-79
2023/12/02 04:54:25;;;;;;;13.15;6.15;;;1.00;99.90;;;0.10;100.00;100860.75;4162444;28;20048;-79
2023/12/02 04:56:25;;;;;;;11.70;7.95;;;1.00;99.90;;;0.08;100.00;100862.59;4154853;28;20053;-79
2023/12/02 04:58:26;;;;;;;10.45;6.72;;;1.00;99.90;;;0.05;100.00;100866.19;4151540;28;20513;-79
2023/12/02 05:00:28;;;;;;;11.25;6.60;;;1.00;99.90;;;0.05;100.00;100873.13;4151533;28;20025;-79
2023/12/02 05:02:28;;;;;;;8.57;6.55;;;1.00;99.90;;;0.06;100.00;100869.63;4151599;28;20516;-79
2023/12/02 05:04:29;;;;;;;11.73;6.25;;;1.00;99.90;;;0.05;100.00;100878.31;4195569;28;20028;-79
2023/12/02 05:06:30;;;;;;;12.63;7.32;;;1.00;99.90;;;0.00;100.00;100878.59;4151554;28;20033;-79
2023/12/02 05:08:31;;;;;;;10.60;6.75;;;0.90;99.90;;;0.02;100.00;100883.69;4184395;28;20039;-79
2023/12/02 05:10:32;;;;;;;11.82;6.78;;;0.90;99.90;;;0.02;100.00;100886.28;4152552;28;20036;-79
2023/12/02 05:12:33;;;;;;;10.75;6.45;;;0.90;99.90;;;0.03;100.00;100890.56;4152585;28;20033;-78
2023/12/02 05:14:34;;;;;;;8.02;6.05;;;0.90;99.90;;;-0.02;100.00;100888.19;4160885;28;20030;-78
2023/12/02 05:16:35;;;;;;;14.95;7.80;;;0.90;99.90;;;-0.01;100.00;100895.91;4150764;28;20058;-79
2023/12/02 05:18:36;;;;;;;12.45;7.50;;;0.90;99.90;;;-0.04;100.00;100897.81;4152520;28;20041;-79
2023/12/02 05:20:37;;;;;;;11.40;6.88;;;0.90;99.90;;;-0.07;100.00;100895.41;4152474;28;20033;-79
2023/12/02 05:22:38;;;;;;;9.85;6.43;;;0.90;99.90;;;-0.04;100.00;100906.44;4151249;28;20073;-79
2023/12/02 05:24:39;;;;;;;10.68;6.28;;;0.90;99.90;;;-0.05;100.00;100917.72;4158714;28;20026;-79
2023/12/02 05:26:40;;;;;;;12.88;6.55;;;0.90;99.90;;;-0.08;100.00;100917.06;4153558;28;20024;-79
2023/12/02 05:28:40;;;;;;;9.88;6.40;;;0.90;99.90;;;-0.12;100.00;100915.56;4151204;28;20032;-79
2023/12/02 05:30:41;;;;;;;14.43;7.63;;;0.80;99.90;;;-0.11;100.00;100925.84;4152518;28;20026;-79
2023/12/02 05:32:42;;;;;;;12.77;6.82;;;0.80;99.90;;;-0.13;100.00;100927.69;4134759;28;20038;-79
2023/12/02 05:34:43;;;;;;;9.70;6.85;;;0.80;99.90;;;-0.16;100.00;100927.88;4152786;28;20032;-79
2023/12/02 05:36:47;;;;;;;12.88;7.72;;;0.80;99.90;;;-0.24;100.00;100919.63;4152386;28;20116;-79
2023/12/02 05:38:48;;;;;;;10.05;6.72;;;0.70;99.90;;;-0.20;100.00;100926.34;4151212;28;20022;-79
2023/12/02 05:40:48;;;;;;;12.70;6.75;;;0.70;99.90;;;-0.25;100.00;100922.34;4152584;28;20033;-79
2023/12/02 05:42:49;;;;;;;11.40;7.00;;;0.70;99.90;;;-0.25;100.00;100932.69;4151163;28;20026;-79
2023/12/02 05:44:50;;;;;;;9.52;6.40;;;0.70;99.90;;;-0.31;100.00;100925.25;4153254;28;20036;-79
2023/12/02 05:46:51;;;;;;;9.30;6.65;;;0.70;99.90;;;-0.33;100.00;100927.91;4150982;28;20030;-79
2023/12/02 05:48:52;;;;;;;10.43;6.32;;;0.60;99.90;;;-0.34;100.00;100943.56;4167487;28;20032;-78
2023/12/02 05:50:52;;;;;;;10.77;6.75;;;0.60;99.90;;;-0.40;100.00;100954.25;4151002;28;20034;-79
2023/12/02 05:52:53;;;;;;;10.20;6.22;;;0.60;99.90;;;-0.45;100.00;100946.75;4152635;28;20030;-79
2023/12/02 05:54:55;;;;;;;11.25;5.97;;;0.50;99.90;;;-0.45;100.00;100945.91;4164155;28;20028;-79
2023/12/02 05:56:56;;;;;;;8.65;5.95;;;0.50;99.90;;;-0.48;100.00;100954.66;4151014;28;20429;-79
2023/12/02 05:58:57;;;;;;;8.63;6.47;;;0.50;99.90;;;-0.53;100.00;100955.81;4151974;28;20034;-79
2023/12/02 06:00:58;;;;;;;10.68;7.25;;;0.40;99.90;;;-0.50;100.00;100964.25;4150968;28;20034;-79
2023/12/02 06:02:58;;;;;;;10.18;6.65;;;0.40;99.90;;;-0.52;100.00;100954.91;4167475;28;20036;-79
2023/12/02 06:04:59;;;;;;;12.25;6.80;;;0.40;99.90;;;-0.47;100.00;100971.88;4159939;28;20026;-79
2023/12/02 06:07:00;;;;;;;11.88;6.95;;;0.40;99.90;;;-0.50;100.00;100974.63;4152187;28;20022;-79
2023/12/02 06:09:01;;;;;;;12.88;7.30;;;0.40;99.90;;;-0.43;100.00;100982.91;4151111;28;20041;-79
2023/12/02 06:11:02;;;;;;;13.10;7.90;;;0.50;99.90;;;-0.46;100.00;100983.91;4151865;28;20026;-79
2023/12/02 06:13:03;;;;;;;13.48;7.38;;;0.50;99.90;;;-0.42;100.00;100988.03;4150969;28;20169;-79
2023/12/02 06:15:06;;;;;;;13.60;7.25;;;0.50;99.90;;;-0.40;100.00;100990.53;4159153;28;20030;-79
2023/12/02 06:17:07;;;;;;;12.45;6.70;;;0.50;99.90;;;-0.45;100.00;100989.94;4152157;28;20033;-79
2023/12/02 06:19:08;;;;;;;11.35;6.72;;;0.50;99.90;;;-0.38;100.00;101006.81;4150740;28;20148;-78
2023/12/02 06:21:12;;;;;;;11.93;7.03;;;0.50;99.90;;;-0.40;100.00;101004.34;4152064;28;20026;-79
2023/12/02 06:23:12;;;;;;;14.68;7.70;;;0.50;99.90;;;-0.39;100.00;101007.75;4150942;28;20105;-78
2023/12/02 06:25:13;;;;;;;14.65;7.55;;;0.50;99.90;;;-0.41;100.00;101004.41;4157245;28;20374;-78
2023/12/02 06:27:14;;;;;;;11.32;6.75;;;0.50;99.90;;;-0.43;100.00;101007.09;4168003;28;20403;-79
2023/12/02 06:29:15;;;;;;;13.95;6.80;;;0.50;99.90;;;-0.38;100.00;101025.81;4170089;28;20504;-78
2023/12/02 06:31:17;;;;;;;12.68;7.45;;;0.50;99.90;;;-0.42;100.00;101018.28;4155176;28;20559;-78
2023/12/02 06:33:17;;;;;;;12.30;7.45;;;0.50;99.90;;;-0.39;100.00;101024.16;4153763;28;20029;-79
2023/12/02 06:35:18;;;;;;;14.20;8.05;;;0.50;99.90;;;-0.42;100.00;101029.50;4156676;28;20033;-78
2023/12/02 06:37:19;;;;;;;11.75;7.47;;;0.50;99.90;;;-0.40;100.00;101038.03;4153926;28;20076;-79
2023/12/02 06:39:20;;;;;;;12.43;6.95;;;0.50;99.90;;;-0.38;100.00;101041.34;4157830;28;20076;-79
2023/12/02 06:41:21;;;;;;;12.65;7.82;;;0.50;99.90;;;-0.44;100.00;101031.31;4160228;28;20053;-79
2023/12/02 06:43:22;;;;;;;13.23;7.22;;;0.50;99.90;;;-0.40;100.00;101039.78;4153752;28;20453;-78
2023/12/02 06:45:22;;;;;;;13.02;7.90;;;0.50;99.90;;;-0.40;100.00;101040.63;4154931;28;20026;-78
2023/12/02 06:47:23;;;;;;;10.10;6.88;;;0.50;99.90;;;-0.43;100.00;101039.94;4155004;28;20029;-79
2023/12/02 06:49:24;;;;;;;11.55;6.97;;;0.50;99.90;;;-0.47;100.00;101043.56;4186399;28;20055;-79
2023/12/02 06:51:28;;;;;;;10.15;6.65;;;0.50;99.90;;;-0.50;100.00;101051.50;4153964;28;20432;-78
2023/12/02 06:53:29;;;;;;;10.23;6.53;;;0.40;99.90;;;-0.55;100.00;101043.97;4155093;28;20493;-79
2023/12/02 06:55:32;;;;;;;13.35;7.50;;;0.40;99.90;;;-0.62;100.00;101040.03;4163540;28;20081;-79
2023/12/02 06:57:33;;;;;;;10.75;6.70;;;0.40;99.90;;;-0.68;100.00;101051.53;4154691;28;20026;-78
2023/12/02 06:59:34;;;;;;;12.18;7.70;;;0.30;99.90;;;-0.74;100.00;101053.59;4153061;28;20390;-79
2023/12/02 07:01:35;;;;;;;14.35;7.38;;;0.20;99.90;;;-0.77;100.00;101053.75;4154644;28;20402;-78
2023/12/02 07:03:38;;;;;;;16.40;7.80;;;0.20;99.90;;;-0.78;100.00;101060.69;4188288;28;20400;-78
2023/12/02 07:05:39;;;;;;;12.18;7.22;;;0.20;99.90;;;-0.83;100.00;101056.63;4161382;28;20049;-78
2023/12/02 07:07:40;;;;;;;11.98;6.95;;;0.20;99.90;;;-0.87;100.00;101045.63;4153315;28;20481;-78
2023/12/02 07:09:40;;;;;;;11.27;7.50;;;0.10;99.90;;;-0.83;100.00;101056.63;4153281;28;20580;-79
2023/12/02 07:11:41;;;;;;;8.55;6.72;;;0.10;99.90;;;-0.88;100.00;101061.22;4186170;28;20037;-78
2023/12/02 07:13:43;;;;;;;10.52;6.50;;;0.10;99.90;;;-0.96;100.00;101058.16;4139475;28;20037;-78
2023/12/02 07:15:44;;;;;;;9.40;6.90;;;0.10;99.90;;;-1.04;100.00;101055.09;4157523;28;20057;-78
2023/12/02 07:17:44;;;;;;;13.05;7.72;;;0.00;99.90;;;-1.15;100.00;101046.13;4154246;28;20036;-78
2023/12/02 07:19:45;;;;;;;13.20;7.65;;;-0.10;99.90;;;-1.15;100.00;101053.03;4154944;28;20033;-78
2023/12/02 07:21:46;;;;;;;10.75;6.85;;;-0.10;99.90;;;-1.16;100.00;101056.53;4145536;28;20022;-79
2023/12/02 07:23:47;;;;;;;14.02;8.77;;;-0.20;99.90;;;-1.21;100.00;101049.00;4157624;28;20017;-79
2023/12/02 07:25:48;;;;;;;12.60;7.90;;;-0.20;99.90;;;-1.21;100.00;101056.78;4154971;28;20033;-79
2023/12/02 07:27:49;;;;;;;10.63;6.97;;;-0.20;99.90;;;-1.25;100.00;101059.56;4154308;28;20030;-79
2023/12/02 07:29:49;;;;;;;11.38;7.03;;;-0.30;99.90;;;-1.27;100.00;101064.81;4152826;28;20484;-79
2023/12/02 07:31:50;;;;;;;15.30;7.60;;;-0.30;99.90;;;-1.32;100.00;101060.78;4169184;28;20036;-78
2023/12/02 07:33:51;;;;;;;15.32;8.52;;;-0.30;99.90;;;-1.37;100.00;101068.75;4156452;28;20447;-79
2023/12/02 07:35:52;;;;;;;15.88;8.50;;;-0.30;99.90;;;-1.39;100.00;101067.16;4154300;28;20026;-79
2023/12/02 07:37:53;;;;;;;13.90;7.80;;;-0.40;99.90;;;-1.43;100.00;101069.03;4185757;28;20029;-79
2023/12/02 07:39:54;;;;;;;17.40;8.05;;;-0.40;99.90;;;-1.47;100.00;101070.13;4152073;28;20033;-79
2023/12/02 07:41:56;;;;;;;22.40;11.43;;;-0.40;99.90;;;-1.47;100.00;101062.34;4156823;28;20024;-79
2023/12/02 07:43:56;;;;;;;19.38;10.98;;;-0.40;99.90;;;-1.45;100.00;101068.28;4152699;28;20058;-79
2023/12/02 07:45:57;;;;;;;13.60;8.38;;;-0.40;99.90;;;-1.44;100.00;101080.31;4152820;28;20036;-79
2023/12/02 07:47:58;;;;;;;22.08;11.77;;;-0.40;99.90;;;-1.46;100.00;101082.13;4185631;28;20033;-79
2023/12/02 07:49:59;;;;;;;23.20;12.13;;;-0.40;99.90;;;-1.52;100.00;101081.59;4153765;28;20405;-79
2023/12/02 07:51:59;;;;;;;20.25;10.05;;;-0.40;99.90;;;-1.46;100.00;101091.63;4154310;28;20405;-79
2023/12/02 07:54:00;;;;;;;31.00;10.10;;;-0.50;99.90;;;-1.44;100.00;101092.41;4157298;28;20425;-78
2023/12/02 07:56:01;;;;;;;14.27;8.63;;;-0.50;99.90;;;-1.45;100.00;101094.16;4160125;28;20415;-78
2023/12/02 07:58:02;;;;;;;19.80;11.02;;;-0.50;99.90;;;-1.32;100.00;101097.00;4153538;28;20181;-77
2023/12/02 08:00:04;;;;;;;22.25;11.18;;;-0.40;99.90;;;-1.08;100.00;101107.94;4153625;28;20084;-78
2023/12/02 08:02:05;;;;;;;17.98;10.77;;;-0.20;99.90;;;-0.87;100.00;101107.75;4152642;28;20057;-78
2023/12/02 08:04:06;;;;;;;25.40;12.32;;;0.00;99.90;;;-0.67;100.00;101112.81;4158838;28;20152;-79
2023/12/02 08:06:07;;;;;;;26.55;12.60;;;0.20;99.90;;;-0.48;100.00;101111.88;4157028;28;20030;-79
2023/12/02 08:08:08;;;;;;;19.05;10.88;;;0.40;99.90;;;-0.27;100.00;101127.16;4152398;28;20029;-79
2023/12/02 08:10:09;;;;;;;26.58;15.15;;;0.60;99.90;;;-0.15;100.00;101126.53;4155865;28;20037;-79
2023/12/02 08:12:10;;;;;;;15.68;10.05;;;0.70;99.90;;;-0.02;100.00;101140.56;4152332;28;20030;-78
2023/12/02 08:14:11;;;;;;;23.02;13.48;;;0.90;99.90;;;0.06;100.00;101142.75;4159048;28;20465;-79
2023/12/02 08:16:12;;;;;;;15.65;10.18;;;1.00;99.90;;;0.18;100.00;101154.28;4152586;28;20053;-79
2023/12/02 08:18:13;;;;;;;15.80;10.00;;;1.10;99.90;;;0.26;100.00;101160.72;4152111;28;20030;-80
2023/12/02 08:20:14;;;;;;;36.33;23.40;;;1.10;99.90;;;0.36;100.00;101169.69;4185122;28;20098;-78
2023/12/02 08:22:15;;;;;;;27.60;16.25;;;1.20;99.90;;;0.46;100.00;101167.44;4153318;28;20018;-77
2023/12/02 08:24:16;;;;;;;24.25;13.50;;;1.30;99.90;;;0.53;100.00;101169.66;4157267;28;20018;-78